sensor_id;sensor_type;location;lat;lon;timestamp;temperature;humidity
70170;DHT22;57543;45.442;9.212;2022-09-09T00:01:41;26.31;62.33
70170;DHT22;57543;45.442;9.212;2022-09-09T00:05:00;26.39;62.13
70170;DHT22;57543;45.442;9.212;2022-09-09T00:08:14;26.37;62.37
70170;DHT22;57543;45.442;9.212;2022-09-09T00:11:27;26.27;62.67
70170;DHT22;57543;45.442;9.212;2022-09-09T00:14:50;26.22;62.85
70170;DHT22;57543;45.442;9.212;2022-09-09T00:21:35;25.97;63.90
70170;DHT22;57543;45.442;9.212;2022-09-09T00:24:49;26.04;63.80
70170;DHT22;57543;45.442;9.212;2022-09-09T00:27:56;26.11;63.65
70170;DHT22;57543;45.442;9.212;2022-09-09T00:31:16;26.08;63.82
70170;DHT22;57543;45.442;9.212;2022-09-09T00:34:24;26.14;63.78
70170;DHT22;57543;45.442;9.212;2022-09-09T00:37:30;26.16;63.75
70170;DHT22;57543;45.442;9.212;2022-09-09T00:41:01;26.08;63.99
70170;DHT22;57543;45.442;9.212;2022-09-09T00:47:38;26.08;63.91
70170;DHT22;57543;45.442;9.212;2022-09-09T00:51:00;26.10;64.12
70170;DHT22;57543;45.442;9.212;2022-09-09T00:54:28;26.08;64.12
70170;DHT22;57543;45.442;9.212;2022-09-09T00:57:36;26.01;64.48
70170;DHT22;57543;45.442;9.212;2022-09-09T01:00:44;25.98;64.38
70170;DHT22;57543;45.442;9.212;2022-09-09T01:03:55;25.92;64.58
70170;DHT22;57543;45.442;9.212;2022-09-09T01:07:16;25.93;64.51
70170;DHT22;57543;45.442;9.212;2022-09-09T01:10:49;25.79;64.99
70170;DHT22;57543;45.442;9.212;2022-09-09T01:13:58;25.90;64.86
70170;DHT22;57543;45.442;9.212;2022-09-09T01:20:25;25.67;65.51
70170;DHT22;57543;45.442;9.212;2022-09-09T01:27:03;25.52;65.93
70170;DHT22;57543;45.442;9.212;2022-09-09T01:30:11;25.41;66.38
70170;DHT22;57543;45.442;9.212;2022-09-09T01:33:18;25.41;66.42
70170;DHT22;57543;45.442;9.212;2022-09-09T01:36:33;25.38;66.55
70170;DHT22;57543;45.442;9.212;2022-09-09T01:39:43;25.35;66.60
70170;DHT22;57543;45.442;9.212;2022-09-09T01:42:49;25.34;66.69
70170;DHT22;57543;45.442;9.212;2022-09-09T01:45:54;25.29;66.88
70170;DHT22;57543;45.442;9.212;2022-09-09T01:49:00;25.43;66.44
70170;DHT22;57543;45.442;9.212;2022-09-09T01:52:06;25.35;66.72
70170;DHT22;57543;45.442;9.212;2022-09-09T01:55:15;25.27;66.95
70170;DHT22;57543;45.442;9.212;2022-09-09T02:04:52;25.41;66.35
70170;DHT22;57543;45.442;9.212;2022-09-09T02:08:05;25.37;66.62
70170;DHT22;57543;45.442;9.212;2022-09-09T02:11:20;25.38;66.56
70170;DHT22;57543;45.442;9.212;2022-09-09T02:14:56;25.25;66.57
70170;DHT22;57543;45.442;9.212;2022-09-09T02:18:04;25.17;67.00
70170;DHT22;57543;45.442;9.212;2022-09-09T02:21:13;25.11;67.23
70170;DHT22;57543;45.442;9.212;2022-09-09T02:24:17;25.20;67.19
70170;DHT22;57543;45.442;9.212;2022-09-09T02:27:27;25.29;66.54
70170;DHT22;57543;45.442;9.212;2022-09-09T02:30:32;25.21;66.67
70170;DHT22;57543;45.442;9.212;2022-09-09T02:33:42;25.08;67.12
70170;DHT22;57543;45.442;9.212;2022-09-09T02:36:47;25.06;67.16
70170;DHT22;57543;45.442;9.212;2022-09-09T02:39:52;25.14;66.89
70170;DHT22;57543;45.442;9.212;2022-09-09T02:42:58;25.03;67.12
70170;DHT22;57543;45.442;9.212;2022-09-09T02:46:08;25.00;67.29
70170;DHT22;57543;45.442;9.212;2022-09-09T02:49:22;25.03;67.16
70170;DHT22;57543;45.442;9.212;2022-09-09T02:52:52;24.97;67.50
70170;DHT22;57543;45.442;9.212;2022-09-09T02:56:04;25.11;67.09
70170;DHT22;57543;45.442;9.212;2022-09-09T02:59:12;25.06;67.35
70170;DHT22;57543;45.442;9.212;2022-09-09T03:02:17;25.01;67.72
70170;DHT22;57543;45.442;9.212;2022-09-09T03:05:25;25.04;67.76
70170;DHT22;57543;45.442;9.212;2022-09-09T03:08:30;25.01;67.89
70170;DHT22;57543;45.442;9.212;2022-09-09T03:11:36;24.93;68.28
70170;DHT22;57543;45.442;9.212;2022-09-09T03:14:40;24.80;68.80
70170;DHT22;57543;45.442;9.212;2022-09-09T03:17:44;24.73;69.09
70170;DHT22;57543;45.442;9.212;2022-09-09T03:20:47;24.75;69.20
70170;DHT22;57543;45.442;9.212;2022-09-09T03:23:52;24.72;69.44
70170;DHT22;57543;45.442;9.212;2022-09-09T03:26:56;24.58;69.91
70170;DHT22;57543;45.442;9.212;2022-09-09T03:30:01;24.51;70.08
70170;DHT22;57543;45.442;9.212;2022-09-09T03:33:07;24.58;70.09
70170;DHT22;57543;45.442;9.212;2022-09-09T03:36:11;24.49;70.47
70170;DHT22;57543;45.442;9.212;2022-09-09T03:39:15;24.51;70.37
70170;DHT22;57543;45.442;9.212;2022-09-09T03:42:20;24.48;70.62
70170;DHT22;57543;45.442;9.212;2022-09-09T03:45:28;24.52;70.47
70170;DHT22;57543;45.442;9.212;2022-09-09T03:48:32;24.51;70.48
70170;DHT22;57543;45.442;9.212;2022-09-09T03:51:37;24.55;70.53
70170;DHT22;57543;45.442;9.212;2022-09-09T03:54:43;24.45;70.64
70170;DHT22;57543;45.442;9.212;2022-09-09T03:57:47;24.43;70.74
70170;DHT22;57543;45.442;9.212;2022-09-09T04:01:18;24.51;70.35
70170;DHT22;57543;45.442;9.212;2022-09-09T04:04:23;24.49;70.41
70170;DHT22;57543;45.442;9.212;2022-09-09T04:07:27;24.47;70.53
70170;DHT22;57543;45.442;9.212;2022-09-09T04:10:31;24.51;70.49
70170;DHT22;57543;45.442;9.212;2022-09-09T04:13:36;24.52;70.50
70170;DHT22;57543;45.442;9.212;2022-09-09T04:16:42;24.56;70.47
70170;DHT22;57543;45.442;9.212;2022-09-09T04:19:48;24.52;70.56
70170;DHT22;57543;45.442;9.212;2022-09-09T04:22:52;24.56;70.28
70170;DHT22;57543;45.442;9.212;2022-09-09T04:25:57;24.48;70.63
70170;DHT22;57543;45.442;9.212;2022-09-09T04:29:01;24.53;70.57
70170;DHT22;57543;45.442;9.212;2022-09-09T04:32:06;24.51;70.69
70170;DHT22;57543;45.442;9.212;2022-09-09T04:35:10;24.67;70.13
70170;DHT22;57543;45.442;9.212;2022-09-09T04:38:15;24.60;70.31
70170;DHT22;57543;45.442;9.212;2022-09-09T04:41:19;24.66;70.17
70170;DHT22;57543;45.442;9.212;2022-09-09T04:44:26;24.60;70.13
70170;DHT22;57543;45.442;9.212;2022-09-09T04:47:31;24.56;70.24
70170;DHT22;57543;45.442;9.212;2022-09-09T04:50:35;24.56;70.41
70170;DHT22;57543;45.442;9.212;2022-09-09T04:53:39;24.56;70.50
70170;DHT22;57543;45.442;9.212;2022-09-09T04:56:46;24.53;70.52
70170;DHT22;57543;45.442;9.212;2022-09-09T04:59:50;24.42;70.89
70170;DHT22;57543;45.442;9.212;2022-09-09T05:02:54;24.32;71.22
70170;DHT22;57543;45.442;9.212;2022-09-09T05:06:05;24.28;71.42
70170;DHT22;57543;45.442;9.212;2022-09-09T05:09:09;24.20;71.90
70170;DHT22;57543;45.442;9.212;2022-09-09T05:12:13;24.20;72.06
70170;DHT22;57543;45.442;9.212;2022-09-09T05:15:24;24.28;72.16
70170;DHT22;57543;45.442;9.212;2022-09-09T05:18:27;24.32;72.25
70170;DHT22;57543;45.442;9.212;2022-09-09T05:21:32;24.29;72.61
70170;DHT22;57543;45.442;9.212;2022-09-09T05:24:35;24.39;72.19
70170;DHT22;57543;45.442;9.212;2022-09-09T05:27:41;24.53;71.76
70170;DHT22;57543;45.442;9.212;2022-09-09T05:30:44;24.55;71.63
70170;DHT22;57543;45.442;9.212;2022-09-09T05:33:48;24.67;71.20
70170;DHT22;57543;45.442;9.212;2022-09-09T05:36:55;24.72;71.18
70170;DHT22;57543;45.442;9.212;2022-09-09T05:40:00;24.82;70.81
70170;DHT22;57543;45.442;9.212;2022-09-09T05:43:04;24.86;70.62
70170;DHT22;57543;45.442;9.212;2022-09-09T05:46:10;24.87;70.46
70170;DHT22;57543;45.442;9.212;2022-09-09T05:49:15;24.97;70.28
70170;DHT22;57543;45.442;9.212;2022-09-09T05:52:20;24.98;70.26
70170;DHT22;57543;45.442;9.212;2022-09-09T05:55:23;24.80;70.46
70170;DHT22;57543;45.442;9.212;2022-09-09T05:58:34;24.76;70.41
70170;DHT22;57543;45.442;9.212;2022-09-09T06:01:39;24.75;70.67
70170;DHT22;57543;45.442;9.212;2022-09-09T06:04:45;24.75;70.18
70170;DHT22;57543;45.442;9.212;2022-09-09T06:07:52;24.66;70.69
70170;DHT22;57543;45.442;9.212;2022-09-09T06:11:02;24.63;70.97
70170;DHT22;57543;45.442;9.212;2022-09-09T06:14:07;24.65;70.61
70170;DHT22;57543;45.442;9.212;2022-09-09T06:17:11;24.63;70.40
70170;DHT22;57543;45.442;9.212;2022-09-09T06:20:15;24.56;70.87
70170;DHT22;57543;45.442;9.212;2022-09-09T06:23:19;24.56;71.11
70170;DHT22;57543;45.442;9.212;2022-09-09T06:26:25;24.63;70.49
70170;DHT22;57543;45.442;9.212;2022-09-09T06:29:30;24.69;70.46
70170;DHT22;57543;45.442;9.212;2022-09-09T06:32:34;24.72;70.24
70170;DHT22;57543;45.442;9.212;2022-09-09T06:35:41;24.70;69.99
70170;DHT22;57543;45.442;9.212;2022-09-09T06:38:45;24.66;69.82
70170;DHT22;57543;45.442;9.212;2022-09-09T06:41:50;24.65;70.13
70170;DHT22;57543;45.442;9.212;2022-09-09T06:45:19;24.65;69.52
70170;DHT22;57543;45.442;9.212;2022-09-09T06:48:30;24.56;69.83
70170;DHT22;57543;45.442;9.212;2022-09-09T06:51:36;24.65;69.05
70170;DHT22;57543;45.442;9.212;2022-09-09T06:54:41;24.51;69.09
70170;DHT22;57543;45.442;9.212;2022-09-09T06:57:45;24.53;68.80
70170;DHT22;57543;45.442;9.212;2022-09-09T07:01:06;24.66;66.59
70170;DHT22;57543;45.442;9.212;2022-09-09T07:04:12;24.87;65.14
70170;DHT22;57543;45.442;9.212;2022-09-09T07:07:18;25.01;63.33
70170;DHT22;57543;45.442;9.212;2022-09-09T07:10:23;25.10;63.05
70170;DHT22;57543;45.442;9.212;2022-09-09T07:13:27;25.25;62.17
70170;DHT22;57543;45.442;9.212;2022-09-09T07:16:32;25.38;61.76
70170;DHT22;57543;45.442;9.212;2022-09-09T07:19:37;25.37;61.89
70170;DHT22;57543;45.442;9.212;2022-09-09T07:22:42;25.45;61.68
70170;DHT22;57543;45.442;9.212;2022-09-09T07:25:48;25.52;61.01
70170;DHT22;57543;45.442;9.212;2022-09-09T07:28:54;25.63;60.64
70170;DHT22;57543;45.442;9.212;2022-09-09T07:32:00;25.62;60.62
70170;DHT22;57543;45.442;9.212;2022-09-09T07:35:10;25.72;60.33
70170;DHT22;57543;45.442;9.212;2022-09-09T07:38:15;25.80;59.79
70170;DHT22;57543;45.442;9.212;2022-09-09T07:41:28;25.90;59.58
70170;DHT22;57543;45.442;9.212;2022-09-09T07:44:32;26.07;59.06
70170;DHT22;57543;45.442;9.212;2022-09-09T07:47:45;26.22;58.76
70170;DHT22;57543;45.442;9.212;2022-09-09T07:50:49;26.45;56.21
70170;DHT22;57543;45.442;9.212;2022-09-09T07:53:55;26.42;56.19
70170;DHT22;57543;45.442;9.212;2022-09-09T07:57:02;26.39;57.30
70170;DHT22;57543;45.442;9.212;2022-09-09T08:00:09;26.39;56.32
70170;DHT22;57543;45.442;9.212;2022-09-09T08:03:20;26.16;56.73
70170;DHT22;57543;45.442;9.212;2022-09-09T08:06:27;26.01;56.77
70170;DHT22;57543;45.442;9.212;2022-09-09T08:09:32;25.86;59.89
70170;DHT22;57543;45.442;9.212;2022-09-09T08:12:47;25.98;58.73
70170;DHT22;57543;45.442;9.212;2022-09-09T08:15:50;26.24;58.23
70170;DHT22;57543;45.442;9.212;2022-09-09T08:18:54;26.49;57.23
70170;DHT22;57543;45.442;9.212;2022-09-09T08:21:59;26.79;56.25
70170;DHT22;57543;45.442;9.212;2022-09-09T08:25:05;27.04;55.78
70170;DHT22;57543;45.442;9.212;2022-09-09T08:28:10;27.18;54.38
70170;DHT22;57543;45.442;9.212;2022-09-09T08:31:16;27.35;54.57
70170;DHT22;57543;45.442;9.212;2022-09-09T08:34:22;27.45;54.02
70170;DHT22;57543;45.442;9.212;2022-09-09T08:37:28;27.61;53.58
70170;DHT22;57543;45.442;9.212;2022-09-09T08:40:38;27.67;53.69
70170;DHT22;57543;45.442;9.212;2022-09-09T08:43:48;27.67;52.63
70170;DHT22;57543;45.442;9.212;2022-09-09T08:53:48;27.61;52.72
70170;DHT22;57543;45.442;9.212;2022-09-09T08:56:56;27.45;52.24
70170;DHT22;57543;45.442;9.212;2022-09-09T09:00:00;27.42;52.55
70170;DHT22;57543;45.442;9.212;2022-09-09T09:03:23;27.44;51.48
70170;DHT22;57543;45.442;9.212;2022-09-09T09:12:45;27.52;49.89
70170;DHT22;57543;45.442;9.212;2022-09-09T09:15:58;27.76;47.92
70170;DHT22;57543;45.442;9.212;2022-09-09T09:19:04;27.80;47.01
70170;DHT22;57543;45.442;9.212;2022-09-09T09:22:22;27.92;47.96
70170;DHT22;57543;45.442;9.212;2022-09-09T09:25:38;27.94;45.28
70170;DHT22;57543;45.442;9.212;2022-09-09T09:28:43;27.72;44.41
70170;DHT22;57543;45.442;9.212;2022-09-09T09:31:55;27.62;45.67
70170;DHT22;57543;45.442;9.212;2022-09-09T09:35:06;27.62;45.53
70170;DHT22;57543;45.442;9.212;2022-09-09T09:38:17;27.52;46.57
70170;DHT22;57543;45.442;9.212;2022-09-09T09:41:34;27.49;46.50
70170;DHT22;57543;45.442;9.212;2022-09-09T09:44:41;27.55;46.87
70170;DHT22;57543;45.442;9.212;2022-09-09T09:48:03;27.59;46.58
70170;DHT22;57543;45.442;9.212;2022-09-09T09:51:11;27.49;47.28
70170;DHT22;57543;45.442;9.212;2022-09-09T09:54:47;27.56;46.66
70170;DHT22;57543;45.442;9.212;2022-09-09T09:57:52;27.51;47.30
70170;DHT22;57543;45.442;9.212;2022-09-09T10:00:57;27.31;48.01
70170;DHT22;57543;45.442;9.212;2022-09-09T10:04:18;27.53;48.07
70170;DHT22;57543;45.442;9.212;2022-09-09T10:07:24;27.70;47.41
70170;DHT22;57543;45.442;9.212;2022-09-09T10:14:20;28.24;45.64
70170;DHT22;57543;45.442;9.212;2022-09-09T10:37:54;27.35;47.49
70170;DHT22;57543;45.442;9.212;2022-09-09T10:41:15;27.39;47.88
70170;DHT22;57543;45.442;9.212;2022-09-09T10:47:42;27.96;45.85
70170;DHT22;57543;45.442;9.212;2022-09-09T10:50:53;28.17;45.72
70170;DHT22;57543;45.442;9.212;2022-09-09T10:54:13;28.47;45.33
70170;DHT22;57543;45.442;9.212;2022-09-09T11:00:42;29.00;44.16
70170;DHT22;57543;45.442;9.212;2022-09-09T11:03:55;29.14;42.62
70170;DHT22;57543;45.442;9.212;2022-09-09T11:07:05;29.27;42.97
70170;DHT22;57543;45.442;9.212;2022-09-09T11:10:23;29.42;43.24
70170;DHT22;57543;45.442;9.212;2022-09-09T11:13:34;29.61;42.59
70170;DHT22;57543;45.442;9.212;2022-09-09T11:16:48;29.67;42.80
70170;DHT22;57543;45.442;9.212;2022-09-09T11:19:53;29.87;42.96
70170;DHT22;57543;45.442;9.212;2022-09-09T11:23:13;30.01;42.59
70170;DHT22;57543;45.442;9.212;2022-09-09T11:26:28;30.24;42.62
70170;DHT22;57543;45.442;9.212;2022-09-09T11:36:56;30.76;41.83
70170;DHT22;57543;45.442;9.212;2022-09-09T11:40:23;30.73;41.80
70170;DHT22;57543;45.442;9.212;2022-09-09T11:43:31;30.76;42.14
70170;DHT22;57543;45.442;9.212;2022-09-09T11:46:38;30.87;42.04
70170;DHT22;57543;45.442;9.212;2022-09-09T11:49:42;31.00;41.71
70170;DHT22;57543;45.442;9.212;2022-09-09T11:52:48;31.00;41.38
70170;DHT22;57543;45.442;9.212;2022-09-09T11:56:02;31.01;41.67
70170;DHT22;57543;45.442;9.212;2022-09-09T12:02:28;31.13;42.02
70170;DHT22;57543;45.442;9.212;2022-09-09T12:05:45;31.08;41.19
70170;DHT22;57543;45.442;9.212;2022-09-09T12:08:53;30.84;41.94
70170;DHT22;57543;45.442;9.212;2022-09-09T12:12:22;30.76;41.67
70170;DHT22;57543;45.442;9.212;2022-09-09T12:15:28;30.82;41.89
70170;DHT22;57543;45.442;9.212;2022-09-09T12:21:46;30.91;41.92
70170;DHT22;57543;45.442;9.212;2022-09-09T12:25:14;31.04;41.68
70170;DHT22;57543;45.442;9.212;2022-09-09T12:32:06;31.31;41.43
70170;DHT22;57543;45.442;9.212;2022-09-09T12:35:22;31.14;40.66
70170;DHT22;57543;45.442;9.212;2022-09-09T12:38:36;30.97;40.99
70170;DHT22;57543;45.442;9.212;2022-09-09T12:41:40;30.78;41.41
70170;DHT22;57543;45.442;9.212;2022-09-09T12:44:51;30.62;41.60
70170;DHT22;57543;45.442;9.212;2022-09-09T12:47:59;30.34;42.74
70170;DHT22;57543;45.442;9.212;2022-09-09T12:51:15;30.37;42.54
70170;DHT22;57543;45.442;9.212;2022-09-09T12:54:21;30.48;42.50
70170;DHT22;57543;45.442;9.212;2022-09-09T12:57:25;30.71;42.05
70170;DHT22;57543;45.442;9.212;2022-09-09T13:00:29;30.86;41.37
70170;DHT22;57543;45.442;9.212;2022-09-09T13:03:42;31.01;41.75
70170;DHT22;57543;45.442;9.212;2022-09-09T13:06:46;31.10;41.10
70170;DHT22;57543;45.442;9.212;2022-09-09T13:09:50;31.18;40.55
70170;DHT22;57543;45.442;9.212;2022-09-09T13:12:54;31.21;40.38
70170;DHT22;57543;45.442;9.212;2022-09-09T13:15:59;31.25;40.13
70170;DHT22;57543;45.442;9.212;2022-09-09T13:19:21;31.34;39.97
70170;DHT22;57543;45.442;9.212;2022-09-09T13:22:35;31.49;39.89
70170;DHT22;57543;45.442;9.212;2022-09-09T13:25:38;31.48;38.59
70170;DHT22;57543;45.442;9.212;2022-09-09T13:28:42;31.57;38.81
70170;DHT22;57543;45.442;9.212;2022-09-09T13:31:53;31.68;37.98
70170;DHT22;57543;45.442;9.212;2022-09-09T13:34:59;31.78;37.98
70170;DHT22;57543;45.442;9.212;2022-09-09T13:38:08;31.88;37.91
70170;DHT22;57543;45.442;9.212;2022-09-09T13:41:20;31.89;37.77
70170;DHT22;57543;45.442;9.212;2022-09-09T13:44:30;31.88;38.36
70170;DHT22;57543;45.442;9.212;2022-09-09T13:47:36;31.94;38.18
70170;DHT22;57543;45.442;9.212;2022-09-09T13:50:39;31.96;38.29
70170;DHT22;57543;45.442;9.212;2022-09-09T13:53:45;31.90;38.18
70170;DHT22;57543;45.442;9.212;2022-09-09T13:56:49;31.89;38.10
70170;DHT22;57543;45.442;9.212;2022-09-09T13:59:53;31.88;38.43
70170;DHT22;57543;45.442;9.212;2022-09-09T14:02:58;31.99;38.07
70170;DHT22;57543;45.442;9.212;2022-09-09T14:06:03;32.10;36.89
70170;DHT22;57543;45.442;9.212;2022-09-09T14:09:11;32.07;37.20
70170;DHT22;57543;45.442;9.212;2022-09-09T14:12:16;32.07;36.84
70170;DHT22;57543;45.442;9.212;2022-09-09T14:15:20;32.02;37.34
70170;DHT22;57543;45.442;9.212;2022-09-09T14:18:24;32.09;37.92
70170;DHT22;57543;45.442;9.212;2022-09-09T14:21:28;32.23;36.15
70170;DHT22;57543;45.442;9.212;2022-09-09T14:24:32;32.17;37.01
70170;DHT22;57543;45.442;9.212;2022-09-09T14:27:36;32.21;37.86
70170;DHT22;57543;45.442;9.212;2022-09-09T14:30:43;32.19;38.33
70170;DHT22;57543;45.442;9.212;2022-09-09T14:33:50;32.28;37.46
70170;DHT22;57543;45.442;9.212;2022-09-09T14:36:54;32.23;37.50
70170;DHT22;57543;45.442;9.212;2022-09-09T14:39:58;32.27;37.97
70170;DHT22;57543;45.442;9.212;2022-09-09T14:43:02;32.28;36.95
70170;DHT22;57543;45.442;9.212;2022-09-09T14:46:07;32.28;37.67
70170;DHT22;57543;45.442;9.212;2022-09-09T14:49:11;32.28;37.66
70170;DHT22;57543;45.442;9.212;2022-09-09T14:52:16;32.27;37.99
70170;DHT22;57543;45.442;9.212;2022-09-09T14:55:19;32.23;37.91
70170;DHT22;57543;45.442;9.212;2022-09-09T14:58:23;32.28;37.51
70170;DHT22;57543;45.442;9.212;2022-09-09T15:01:28;32.20;37.44
70170;DHT22;57543;45.442;9.212;2022-09-09T15:04:32;32.20;37.24
70170;DHT22;57543;45.442;9.212;2022-09-09T15:07:36;32.23;37.44
70170;DHT22;57543;45.442;9.212;2022-09-09T15:10:41;32.24;37.51
70170;DHT22;57543;45.442;9.212;2022-09-09T15:13:46;32.23;36.61
70170;DHT22;57543;45.442;9.212;2022-09-09T15:16:50;32.30;35.87
70170;DHT22;57543;45.442;9.212;2022-09-09T15:19:54;32.33;35.86
70170;DHT22;57543;45.442;9.212;2022-09-09T15:22:58;32.31;35.61
70170;DHT22;57543;45.442;9.212;2022-09-09T15:26:02;32.28;35.88
70170;DHT22;57543;45.442;9.212;2022-09-09T15:29:06;32.25;35.63
70170;DHT22;57543;45.442;9.212;2022-09-09T15:32:11;32.24;35.45
70170;DHT22;57543;45.442;9.212;2022-09-09T15:35:15;32.24;35.81
70170;DHT22;57543;45.442;9.212;2022-09-09T15:38:19;32.20;35.61
70170;DHT22;57543;45.442;9.212;2022-09-09T15:41:23;32.16;35.31
70170;DHT22;57543;45.442;9.212;2022-09-09T15:44:27;32.06;35.84
70170;DHT22;57543;45.442;9.212;2022-09-09T15:47:31;31.99;36.34
70170;DHT22;57543;45.442;9.212;2022-09-09T15:51:04;31.88;36.29
70170;DHT22;57543;45.442;9.212;2022-09-09T15:54:09;31.68;36.87
70170;DHT22;57543;45.442;9.212;2022-09-09T15:57:13;31.62;36.97
70170;DHT22;57543;45.442;9.212;2022-09-09T16:00:17;31.57;37.17
70170;DHT22;57543;45.442;9.212;2022-09-09T16:03:21;31.53;37.22
70170;DHT22;57543;45.442;9.212;2022-09-09T16:06:25;31.49;36.93
70170;DHT22;57543;45.442;9.212;2022-09-09T16:09:32;31.42;36.98
70170;DHT22;57543;45.442;9.212;2022-09-09T16:12:36;31.44;36.90
70170;DHT22;57543;45.442;9.212;2022-09-09T16:15:40;31.39;37.09
70170;DHT22;57543;45.442;9.212;2022-09-09T16:18:46;31.24;37.14
70170;DHT22;57543;45.442;9.212;2022-09-09T16:21:50;31.04;37.50
70170;DHT22;57543;45.442;9.212;2022-09-09T16:24:54;30.91;37.72
70170;DHT22;57543;45.442;9.212;2022-09-09T16:27:57;30.79;38.21
70170;DHT22;57543;45.442;9.212;2022-09-09T16:31:08;30.69;38.07
70170;DHT22;57543;45.442;9.212;2022-09-09T16:34:14;30.59;38.19
70170;DHT22;57543;45.442;9.212;2022-09-09T16:37:18;30.58;37.89
70170;DHT22;57543;45.442;9.212;2022-09-09T16:40:22;30.45;37.37
70170;DHT22;57543;45.442;9.212;2022-09-09T16:43:26;30.31;37.61
70170;DHT22;57543;45.442;9.212;2022-09-09T16:46:32;30.24;37.50
70170;DHT22;57543;45.442;9.212;2022-09-09T16:49:35;30.16;37.61
70170;DHT22;57543;45.442;9.212;2022-09-09T16:52:39;30.10;37.00
70170;DHT22;57543;45.442;9.212;2022-09-09T16:55:43;30.04;36.97
70170;DHT22;57543;45.442;9.212;2022-09-09T16:58:58;29.83;37.52
70170;DHT22;57543;45.442;9.212;2022-09-09T17:02:02;29.79;38.24
70170;DHT22;57543;45.442;9.212;2022-09-09T17:05:08;29.76;39.19
70170;DHT22;57543;45.442;9.212;2022-09-09T17:08:13;29.73;39.42
70170;DHT22;57543;45.442;9.212;2022-09-09T17:11:18;29.62;37.57
70170;DHT22;57543;45.442;9.212;2022-09-09T17:14:22;29.66;37.74
70170;DHT22;57543;45.442;9.212;2022-09-09T17:17:27;29.52;38.10
70170;DHT22;57543;45.442;9.212;2022-09-09T17:20:35;29.44;39.21
70170;DHT22;57543;45.442;9.212;2022-09-09T17:23:39;29.39;40.96
70170;DHT22;57543;45.442;9.212;2022-09-09T17:26:43;29.39;41.48
70170;DHT22;57543;45.442;9.212;2022-09-09T17:29:48;29.28;41.88
70170;DHT22;57543;45.442;9.212;2022-09-09T17:32:52;29.18;41.69
70170;DHT22;57543;45.442;9.212;2022-09-09T17:35:55;29.06;42.26
70170;DHT22;57543;45.442;9.212;2022-09-09T17:39:00;29.02;42.31
70170;DHT22;57543;45.442;9.212;2022-09-09T17:42:04;29.00;42.30
70170;DHT22;57543;45.442;9.212;2022-09-09T17:45:10;28.84;42.86
70170;DHT22;57543;45.442;9.212;2022-09-09T17:48:14;28.92;42.72
70170;DHT22;57543;45.442;9.212;2022-09-09T17:51:21;28.93;43.16
70170;DHT22;57543;45.442;9.212;2022-09-09T17:54:28;28.82;43.90
70170;DHT22;57543;45.442;9.212;2022-09-09T17:57:31;28.79;44.19
70170;DHT22;57543;45.442;9.212;2022-09-09T18:00:35;28.66;44.58
70170;DHT22;57543;45.442;9.212;2022-09-09T18:03:42;28.59;44.84
70170;DHT22;57543;45.442;9.212;2022-09-09T18:06:49;28.49;45.04
70170;DHT22;57543;45.442;9.212;2022-09-09T18:09:53;28.45;44.91
70170;DHT22;57543;45.442;9.212;2022-09-09T18:12:57;28.35;45.03
70170;DHT22;57543;45.442;9.212;2022-09-09T18:16:05;28.31;45.23
70170;DHT22;57543;45.442;9.212;2022-09-09T18:19:11;28.32;45.16
70170;DHT22;57543;45.442;9.212;2022-09-09T18:22:16;28.14;45.63
70170;DHT22;57543;45.442;9.212;2022-09-09T18:25:22;28.10;45.62
70170;DHT22;57543;45.442;9.212;2022-09-09T18:28:26;28.17;45.44
70170;DHT22;57543;45.442;9.212;2022-09-09T18:31:30;28.10;45.56
70170;DHT22;57543;45.442;9.212;2022-09-09T18:34:34;28.10;45.54
70170;DHT22;57543;45.442;9.212;2022-09-09T18:37:38;28.06;45.52
70170;DHT22;57543;45.442;9.212;2022-09-09T18:40:42;28.10;45.37
70170;DHT22;57543;45.442;9.212;2022-09-09T18:43:48;28.03;45.67
70170;DHT22;57543;45.442;9.212;2022-09-09T18:46:52;27.96;45.52
70170;DHT22;57543;45.442;9.212;2022-09-09T18:49:57;28.00;45.42
70170;DHT22;57543;45.442;9.212;2022-09-09T18:53:01;28.01;45.39
70170;DHT22;57543;45.442;9.212;2022-09-09T18:56:07;27.93;45.44
70170;DHT22;57543;45.442;9.212;2022-09-09T18:59:14;27.93;45.26
70170;DHT22;57543;45.442;9.212;2022-09-09T19:02:17;27.76;45.64
70170;DHT22;57543;45.442;9.212;2022-09-09T19:05:23;27.73;46.02
70170;DHT22;57543;45.442;9.212;2022-09-09T19:08:27;27.85;44.90
70170;DHT22;57543;45.442;9.212;2022-09-09T19:11:31;27.79;45.20
70170;DHT22;57543;45.442;9.212;2022-09-09T19:14:34;27.61;45.65
70170;DHT22;57543;45.442;9.212;2022-09-09T19:17:38;27.73;45.30
70170;DHT22;57543;45.442;9.212;2022-09-09T19:20:42;27.65;45.47
70170;DHT22;57543;45.442;9.212;2022-09-09T19:23:47;27.63;45.62
70170;DHT22;57543;45.442;9.212;2022-09-09T19:26:55;27.58;45.64
70170;DHT22;57543;45.442;9.212;2022-09-09T19:29:59;27.59;45.89
70170;DHT22;57543;45.442;9.212;2022-09-09T19:33:04;27.42;46.24
70170;DHT22;57543;45.442;9.212;2022-09-09T19:36:09;27.39;46.68
70170;DHT22;57543;45.442;9.212;2022-09-09T19:39:14;27.42;46.80
70170;DHT22;57543;45.442;9.212;2022-09-09T19:42:18;27.46;46.92
70170;DHT22;57543;45.442;9.212;2022-09-09T19:45:21;27.48;46.67
70170;DHT22;57543;45.442;9.212;2022-09-09T19:48:25;27.46;46.89
70170;DHT22;57543;45.442;9.212;2022-09-09T19:51:30;27.66;46.24
70170;DHT22;57543;45.442;9.212;2022-09-09T19:54:34;27.49;46.88
70170;DHT22;57543;45.442;9.212;2022-09-09T19:57:37;27.51;47.17
70170;DHT22;57543;45.442;9.212;2022-09-09T20:00:42;27.51;47.25
70170;DHT22;57543;45.442;9.212;2022-09-09T20:03:48;27.52;46.79
70170;DHT22;57543;45.442;9.212;2022-09-09T20:06:54;27.51;47.18
70170;DHT22;57543;45.442;9.212;2022-09-09T20:09:57;27.52;47.39
70170;DHT22;57543;45.442;9.212;2022-09-09T20:13:01;27.51;47.54
70170;DHT22;57543;45.442;9.212;2022-09-09T20:16:07;27.51;47.73
70170;DHT22;57543;45.442;9.212;2022-09-09T20:19:13;27.51;47.72
70170;DHT22;57543;45.442;9.212;2022-09-09T20:22:18;27.49;47.70
70170;DHT22;57543;45.442;9.212;2022-09-09T20:25:22;27.51;47.74
70170;DHT22;57543;45.442;9.212;2022-09-09T20:28:27;27.46;47.78
70170;DHT22;57543;45.442;9.212;2022-09-09T20:31:33;27.51;47.76
70170;DHT22;57543;45.442;9.212;2022-09-09T20:34:42;27.48;47.82
70170;DHT22;57543;45.442;9.212;2022-09-09T20:37:46;27.48;47.80
70170;DHT22;57543;45.442;9.212;2022-09-09T20:40:49;27.45;47.94
70170;DHT22;57543;45.442;9.212;2022-09-09T20:43:57;27.44;47.79
70170;DHT22;57543;45.442;9.212;2022-09-09T20:47:01;27.39;48.01
70170;DHT22;57543;45.442;9.212;2022-09-09T20:50:08;27.38;48.11
70170;DHT22;57543;45.442;9.212;2022-09-09T20:53:13;27.33;47.99
70170;DHT22;57543;45.442;9.212;2022-09-09T20:56:17;27.33;48.03
70170;DHT22;57543;45.442;9.212;2022-09-09T20:59:24;27.39;47.91
70170;DHT22;57543;45.442;9.212;2022-09-09T21:02:28;27.35;47.99
70170;DHT22;57543;45.442;9.212;2022-09-09T21:05:31;27.34;48.04